createdAt,value
2019-01-29T00:04:17.129Z,69.70
2019-01-29T00:07:27.900Z,69.80
2019-01-29T00:13:30.868Z,69.50
2019-01-29T00:16:16.812Z,69.30
2019-01-29T00:18:59.057Z,69.40
2019-01-29T00:28:08.552Z,69.20
2019-01-29T00:30:57.678Z,68.30
2019-01-29T00:39:54.075Z,68.00
2019-01-29T00:42:40.593Z,68.60
2019-01-29T00:45:41.969Z,68.80
2019-01-29T00:48:14.607Z,69.00
2019-01-29T00:51:03.091Z,68.90
2019-01-29T00:54:03.811Z,69.00
2019-01-29T00:56:38.903Z,68.90
2019-01-29T00:59:23.201Z,68.70
2019-01-29T01:02:09.702Z,68.70
2019-01-29T01:04:55.635Z,68.50
2019-01-29T01:10:55.085Z,69.00
2019-01-29T01:17:09.309Z,69.10
2019-01-29T01:20:11.471Z,69.00
2019-01-29T01:22:51.236Z,68.90
2019-01-29T01:25:34.213Z,68.50
2019-01-29T01:28:18.512Z,69.20
2019-01-29T01:31:08.273Z,69.30
2019-01-29T01:42:40.228Z,69.40
2019-01-29T01:48:37.161Z,69.40
2019-01-29T01:54:36.642Z,69.40
2019-01-29T01:57:22.177Z,69.10
2019-01-29T02:00:25.522Z,69.70
2019-01-29T02:02:55.486Z,69.70
2019-01-29T02:06:05.634Z,69.90
2019-01-29T02:08:36.081Z,69.80
2019-01-29T02:11:19.974Z,68.60
2019-01-29T02:14:28.019Z,69.80
2019-01-29T02:20:27.486Z,69.60
2019-01-29T02:23:40.166Z,70.00
2019-01-29T02:41:02.644Z,69.40
2019-01-29T02:47:00.264Z,69.70
2019-01-29T02:56:05.665Z,69.30
2019-01-29T03:05:21.810Z,69.70
2019-01-29T03:10:55.569Z,69.70
2019-01-29T03:17:16.854Z,69.60
2019-01-29T03:26:00.754Z,69.30
2019-01-29T03:35:24.812Z,69.20
2019-01-29T03:38:32.169Z,68.20
2019-01-29T03:40:55.591Z,69.00
2019-01-29T03:43:40.248Z,69.40
2019-01-29T03:47:00.271Z,69.40
2019-01-29T03:55:23.659Z,69.30
2019-01-29T04:07:35.855Z,68.80
2019-01-29T04:10:21.616Z,68.50
2019-01-29T04:13:05.056Z,68.90
2019-01-29T04:25:10.436Z,68.60
2019-01-29T04:28:21.806Z,68.80
2019-01-29T04:37:37.341Z,69.10
2019-01-29T04:40:06.884Z,69.20
2019-01-29T04:42:49.356Z,69.00
2019-01-29T04:54:56.518Z,69.00
2019-01-29T05:04:16.281Z,68.70
2019-01-29T05:09:29.588Z,68.90
2019-01-29T05:16:00.524Z,69.70
2019-01-29T05:24:59.379Z,68.90
2019-01-29T05:27:41.691Z,68.60
2019-01-29T05:40:16.254Z,68.90
2019-01-29T05:47:23.895Z,68.60
2019-01-29T05:53:57.693Z,68.60
2019-01-29T05:57:21.052Z,68.50
2019-01-29T06:04:29.345Z,68.30
2019-01-29T06:07:36.127Z,68.20
2019-01-29T06:10:09.904Z,68.40
2019-01-29T06:12:56.417Z,68.40
2019-01-29T06:16:06.805Z,68.60
2019-01-29T06:19:27.063Z,68.70
2019-01-29T06:22:20.190Z,68.70
2019-01-29T06:24:59.358Z,69.80
2019-01-29T06:27:46.877Z,69.30
2019-01-29T06:30:44.093Z,69.30
2019-01-29T06:37:34.950Z,68.80
2019-01-29T06:40:30.870Z,68.90
2019-01-29T06:43:04.071Z,69.60
2019-01-29T06:46:19.506Z,68.70
2019-01-29T06:49:27.788Z,68.60
2019-01-29T06:51:57.575Z,68.70
2019-01-29T06:55:18.917Z,68.30
2019-01-29T06:57:54.982Z,68.40
2019-01-29T07:01:15.705Z,68.70
2019-01-29T07:04:36.651Z,68.60
2019-01-29T07:07:34.577Z,68.30
2019-01-29T07:10:36.700Z,68.30
2019-01-29T07:13:08.904Z,68.40
2019-01-29T07:16:44.420Z,68.20
2019-01-29T07:20:01.085Z,68.30
2019-01-29T07:23:04.062Z,68.50
2019-01-29T07:25:46.935Z,68.10
2019-01-29T07:28:24.840Z,68.20
2019-01-29T07:31:01.578Z,68.10
2019-01-29T07:34:25.509Z,68.10
2019-01-29T07:37:46.190Z,68.10
2019-01-29T07:40:25.620Z,68.10
2019-01-29T07:43:03.444Z,68.10
2019-01-29T07:45:43.973Z,68.20
2019-01-29T07:49:02.205Z,69.00
2019-01-29T07:52:47.273Z,68.20
2019-01-29T07:55:33.135Z,68.10
2019-01-29T07:58:08.969Z,67.90
2019-01-29T08:00:42.335Z,68.00
2019-01-29T08:03:27.724Z,67.80
2019-01-29T08:06:24.719Z,67.70
2019-01-29T08:12:38.693Z,67.30
2019-01-29T08:19:43.880Z,67.60
2019-01-29T08:22:39.301Z,68.00
2019-01-29T08:25:20.571Z,67.60
2019-01-29T08:28:18.799Z,67.70
2019-01-29T08:35:02.401Z,67.90
2019-01-29T08:38:20.790Z,67.50
2019-01-29T08:51:48.543Z,67.30
2019-01-29T08:55:25.618Z,66.90
2019-01-29T09:01:41.198Z,67.40
2019-01-29T09:05:05.163Z,67.40
2019-01-29T09:11:32.846Z,67.30
2019-01-29T09:15:00.996Z,67.50
2019-01-29T09:25:30.821Z,68.70
2019-01-29T09:32:24.263Z,68.70
2019-01-29T09:39:21.432Z,68.40
2019-01-29T09:46:21.314Z,67.50
2019-01-29T09:49:25.672Z,67.70
2019-01-29T09:52:37.965Z,67.50
2019-01-29T09:55:52.372Z,66.90
2019-01-29T09:58:54.264Z,66.60
2019-01-29T10:02:09.936Z,65.90
2019-01-29T10:05:51.142Z,66.10
2019-01-29T10:08:55.705Z,65.20
2019-01-29T10:15:35.367Z,66.20
2019-01-29T10:19:05.151Z,65.90
2019-01-29T10:21:59.606Z,65.00
2019-01-29T10:25:16.156Z,65.20
2019-01-29T10:28:46.435Z,65.10
2019-01-29T10:31:58.642Z,64.60
2019-01-29T10:35:20.010Z,65.00
2019-01-29T10:38:44.205Z,64.50
2019-01-29T10:42:12.630Z,64.00
2019-01-29T10:45:33.109Z,64.00
2019-01-29T10:48:52.415Z,63.60
2019-01-29T10:52:14.510Z,64.20
2019-01-29T10:55:08.633Z,63.70
2019-01-29T10:58:41.558Z,63.60
2019-01-29T11:01:51.319Z,63.80
2019-01-29T11:05:09.611Z,62.90
2019-01-29T11:08:37.947Z,63.20
2019-01-29T11:12:01.363Z,62.70
2019-01-29T11:15:29.723Z,62.30
2019-01-29T11:22:37.387Z,62.10
2019-01-29T11:26:15.892Z,62.40
2019-01-29T11:29:25.839Z,61.60
2019-01-29T11:32:44.267Z,61.90
2019-01-29T11:36:00.629Z,61.70
2019-01-29T11:39:16.311Z,61.90
2019-01-29T11:45:57.955Z,61.50
2019-01-29T11:49:11.882Z,61.40
2019-01-29T11:51:55.663Z,62.20
2019-01-29T11:54:47.327Z,62.30
2019-01-29T11:57:24.808Z,61.80
2019-01-29T11:59:55.744Z,61.40
2019-01-29T12:03:08.419Z,60.70
2019-01-29T12:06:54.782Z,62.00
2019-01-29T12:10:16.009Z,62.40
2019-01-29T12:13:35.626Z,61.90
2019-01-29T12:16:59.433Z,61.60
2019-01-29T12:20:26.202Z,61.20
2019-01-29T12:24:02.565Z,60.40
2019-01-29T12:26:34.775Z,60.30
2019-01-29T12:30:06.441Z,60.50
2019-01-29T12:33:16.038Z,61.80
2019-01-29T12:36:06.345Z,61.40
2019-01-29T12:38:53.345Z,61.40
2019-01-29T12:41:38.990Z,60.90
2019-01-29T12:44:53.048Z,62.00
2019-01-29T12:47:48.182Z,61.00
2019-01-29T12:50:52.261Z,60.40
2019-01-29T12:53:56.988Z,60.80
2019-01-29T13:04:28.056Z,60.90
2019-01-29T13:11:18.503Z,60.50
2019-01-29T13:14:38.266Z,60.70
2019-01-29T13:17:59.538Z,60.40
2019-01-29T13:21:08.374Z,59.70
2019-01-29T13:24:25.490Z,59.70
2019-01-29T13:33:54.754Z,59.00
2019-01-29T13:36:59.535Z,60.00
2019-01-29T13:40:23.726Z,60.30
2019-01-29T13:44:00.592Z,59.30
2019-01-29T13:47:06.503Z,59.80
2019-01-29T13:50:29.872Z,59.90
2019-01-29T13:53:18.149Z,59.30
2019-01-29T13:56:39.042Z,59.30
2019-01-29T14:03:13.178Z,59.00
2019-01-29T14:10:07.106Z,58.60
2019-01-29T14:13:21.477Z,59.30
2019-01-29T14:16:50.408Z,58.80
2019-01-29T14:20:21.793Z,58.30
2019-01-29T14:23:36.276Z,58.70
2019-01-29T14:26:47.710Z,59.00
2019-01-29T14:29:48.967Z,59.30
2019-01-29T14:33:13.501Z,59.30
2019-01-29T14:36:29.342Z,59.10
2019-01-29T14:40:17.075Z,58.90
2019-01-29T14:43:39.468Z,59.00
2019-01-29T14:46:54.826Z,59.50
2019-01-29T14:50:24.371Z,59.50
2019-01-29T14:56:56.319Z,59.30
2019-01-29T15:00:00.586Z,59.10
2019-01-29T15:03:24.161Z,59.30
2019-01-29T15:06:33.049Z,59.30
2019-01-29T15:10:00.261Z,59.30
2019-01-29T15:13:30.614Z,59.30
2019-01-29T15:17:22.001Z,59.00
2019-01-29T15:20:51.311Z,58.80
2019-01-29T15:24:09.328Z,58.90
2019-01-29T15:27:38.015Z,59.40
2019-01-29T15:31:11.655Z,59.20
2019-01-29T15:34:32.678Z,59.40
2019-01-29T15:37:54.678Z,59.40
2019-01-29T15:41:15.394Z,59.60
2019-01-29T15:44:44.885Z,59.50
2019-01-29T15:51:18.970Z,59.50
2019-01-29T15:54:40.499Z,59.00
2019-01-29T15:58:07.744Z,59.40
2019-01-29T16:01:31.551Z,59.70
2019-01-29T16:04:55.230Z,59.40
2019-01-29T16:08:16.949Z,59.60
2019-01-29T16:11:39.618Z,59.60
2019-01-29T16:15:01.774Z,59.00
2019-01-29T16:18:21.793Z,59.60
2019-01-29T16:21:44.935Z,59.20
2019-01-29T16:25:01.947Z,59.80
2019-01-29T16:28:26.531Z,59.20
2019-01-29T16:31:48.980Z,59.40
2019-01-29T16:35:06.136Z,59.50
2019-01-29T16:38:23.663Z,59.70
2019-01-29T16:41:53.318Z,59.60
2019-01-29T16:45:21.648Z,59.80
2019-01-29T16:52:19.246Z,59.90
2019-01-29T16:55:56.713Z,59.90
2019-01-29T16:59:04.949Z,59.60
2019-01-29T17:02:36.944Z,59.70
2019-01-29T17:05:40.303Z,59.80
2019-01-29T17:09:08.764Z,59.60
2019-01-29T17:11:51.938Z,59.50
2019-01-29T17:14:52.496Z,59.70
2019-01-29T17:18:13.443Z,59.60
2019-01-29T17:24:47.484Z,60.10
2019-01-29T17:28:14.752Z,60.00
2019-01-29T17:31:25.701Z,60.50
2019-01-29T17:34:54.115Z,60.60
2019-01-29T17:41:28.177Z,60.80
2019-01-29T17:44:26.835Z,61.00
2019-01-29T17:51:13.658Z,60.60
2019-01-29T17:54:23.729Z,61.50
2019-01-29T17:57:59.485Z,61.60
2019-01-29T18:01:22.312Z,61.90
2019-01-29T18:04:47.697Z,61.90
2019-01-29T18:08:30.187Z,61.90
2019-01-29T18:15:10.414Z,63.00
2019-01-29T18:18:40.351Z,62.20
2019-01-29T18:22:13.240Z,62.90
2019-01-29T18:29:10.564Z,64.20
2019-01-29T18:32:25.004Z,64.80
2019-01-29T18:36:00.614Z,65.20
2019-01-29T18:39:07.488Z,64.90
2019-01-29T18:42:44.269Z,65.30
2019-01-29T18:46:04.807Z,65.00
2019-01-29T18:52:32.335Z,65.60
2019-01-29T19:02:37.402Z,66.40
2019-01-29T19:06:12.912Z,65.90
2019-01-29T19:09:08.850Z,66.20
2019-01-29T19:16:12.452Z,66.00
2019-01-29T19:19:22.867Z,66.30
2019-01-29T19:22:33.406Z,66.30
2019-01-29T19:26:04.072Z,66.40
2019-01-29T19:29:35.111Z,66.60
2019-01-29T19:32:45.952Z,66.00
2019-01-29T19:36:18.881Z,66.20
2019-01-29T19:46:34.697Z,66.30
2019-01-29T19:53:38.498Z,67.00
2019-01-29T20:00:01.113Z,68.00
2019-01-29T20:03:10.220Z,68.00
2019-01-29T20:06:30.981Z,67.40
2019-01-29T20:09:52.696Z,67.40
2019-01-29T20:13:19.701Z,67.00
2019-01-29T20:16:55.166Z,67.60
2019-01-29T20:20:27.852Z,67.50
2019-01-29T20:23:42.522Z,67.50
2019-01-29T20:26:37.469Z,68.10
2019-01-29T20:29:24.231Z,68.60
2019-01-29T20:32:24.335Z,68.00
2019-01-29T20:35:14.998Z,68.40
2019-01-29T20:38:42.424Z,68.20
2019-01-29T20:41:17.795Z,67.80
2019-01-29T20:44:37.222Z,68.10
2019-01-29T20:47:08.651Z,68.00
2019-01-29T20:49:52.349Z,67.90
2019-01-29T20:52:49.417Z,67.70
2019-01-29T20:55:52.300Z,67.70
2019-01-29T20:59:08.943Z,68.30
2019-01-29T21:01:53.536Z,67.60
2019-01-29T21:04:48.486Z,67.70
2019-01-29T21:07:41.832Z,67.50
2019-01-29T21:10:16.929Z,67.50
2019-01-29T21:12:52.839Z,67.20
2019-01-29T21:15:46.098Z,67.00
2019-01-29T21:18:27.650Z,67.40
2019-01-29T21:21:19.731Z,67.50
2019-01-29T21:24:18.663Z,67.20
2019-01-29T21:26:52.139Z,67.50
2019-01-29T21:29:50.947Z,67.40
2019-01-29T21:36:07.819Z,67.30
2019-01-29T21:39:22.076Z,67.40
2019-01-29T21:42:45.589Z,67.30
2019-01-29T21:45:59.174Z,67.40
2019-01-29T21:49:14.081Z,67.40
2019-01-29T21:52:39.333Z,67.70
2019-01-29T21:55:56.533Z,67.50
2019-01-29T21:59:12.954Z,67.40
2019-01-29T22:02:16.974Z,67.60
2019-01-29T22:05:11.839Z,68.00
2019-01-29T22:08:20.408Z,67.70
2019-01-29T22:11:39.493Z,68.10
2019-01-29T22:15:05.308Z,68.40
2019-01-29T22:18:45.442Z,68.60
2019-01-29T22:21:59.977Z,68.40
2019-01-29T22:25:31.416Z,67.50
2019-01-29T22:28:59.154Z,67.60
2019-01-29T22:32:23.621Z,67.80
2019-01-29T22:35:17.763Z,67.60
2019-01-29T22:38:33.753Z,68.00
2019-01-29T22:41:28.143Z,68.30
2019-01-29T22:44:09.951Z,68.80
2019-01-29T22:47:28.597Z,68.30
2019-01-29T22:50:19.684Z,69.00
2019-01-29T22:53:07.376Z,68.30
2019-01-29T22:56:14.690Z,68.80
2019-01-29T22:58:54.165Z,69.10
2019-01-29T23:01:38.522Z,68.90
2019-01-29T23:04:23.852Z,68.80
2019-01-29T23:07:13.622Z,68.60
2019-01-29T23:09:51.369Z,69.10
2019-01-29T23:12:29.318Z,68.70
2019-01-29T23:15:10.948Z,68.30
2019-01-29T23:17:47.000Z,68.60
2019-01-29T23:20:28.405Z,68.80
2019-01-29T23:23:15.594Z,69.10
2019-01-29T23:25:57.394Z,69.20
2019-01-29T23:28:41.606Z,69.00
2019-01-29T23:31:27.811Z,68.80
2019-01-29T23:34:08.722Z,68.70
2019-01-29T23:36:53.676Z,69.50
2019-01-29T23:39:38.383Z,69.40
2019-01-29T23:42:22.719Z,69.40
2019-01-29T23:45:05.598Z,69.70
2019-01-29T23:47:53.353Z,69.70
2019-01-29T23:50:35.646Z,69.30
2019-01-29T23:53:20.532Z,69.20
2019-01-29T23:56:00.341Z,68.70
2019-01-29T23:58:45.982Z,68.50
